KDAB

Daytona Beach International Airport

Daytona Beach, Florida, USA
METAR KDAB 172053Z 09006KT 10SM SCT041 BKN250 23/17 A3019 RMK SLP224 T02310169 55010
Observed Flight Rules
Dec-17 @ 20:53 UTC (42 minutes ago) Visual Flight Rules
Wind Visibility Clouds
90° at 6 knots 10 miles
  • Scattered at 4,100' AGL
  • Broken at 25,000' AGL
Temperatures Readings
Current 23°C / 73°F
Dewpoint 17°C / 63°F
Humidity 69%
Altimeter 30.19" Hg
Pressure 1022.4 hPa
Elevation 9
METAR KDAB 172053Z 09006KT 10SM SCT041 BKN250 23/17 A3019 RMK SLP224 T02310169 55010
Observed Flight Rules
Dec-17 @ 20:53 UTC
(42 minutes ago)
VFR
Wind Visibility
90° at 6 knots 10 miles
Clouds
  • Scattered at 4,100' AGL
  • Broken at 25,000' AGL
Temperature Dewpoint
23°C / 73°F 17°C / 63°F
Humidity Altimeter Pressure
69% 30.19" Hg 1022.4 hPa